createdAt,value
2022-10-18T00:00:21.120Z,96.93
2022-10-18T00:05:21.101Z,96.93
2022-10-18T00:10:21.001Z,96.73
2022-10-18T00:15:20.980Z,96.73
2022-10-18T00:20:20.923Z,96.93
2022-10-18T00:25:21.040Z,97.24
2022-10-18T00:30:20.843Z,97.24
2022-10-18T00:35:20.766Z,97.24
2022-10-18T00:40:20.717Z,97.24
2022-10-18T00:45:20.652Z,97.24
2022-10-18T00:50:20.591Z,97.14
2022-10-18T00:55:20.534Z,97.03
2022-10-18T01:00:20.472Z,97.03
2022-10-18T01:05:20.435Z,97.03
2022-10-18T01:10:20.372Z,97.03
2022-10-18T01:15:20.323Z,97.03
2022-10-18T01:20:20.321Z,96.93
2022-10-18T01:25:20.275Z,96.93
2022-10-18T01:30:20.149Z,96.83
2022-10-18T01:35:20.132Z,96.83
2022-10-18T01:40:20.117Z,96.73
2022-10-18T01:45:19.992Z,96.73
2022-10-18T01:50:19.933Z,96.63
2022-10-18T01:55:19.882Z,96.63
2022-10-18T02:00:19.947Z,96.73
2022-10-18T02:05:19.892Z,96.73
2022-10-18T02:10:19.850Z,96.73
2022-10-18T02:15:19.753Z,96.73
2022-10-18T02:20:19.697Z,96.53
2022-10-18T02:25:19.658Z,96.73
2022-10-18T02:30:19.523Z,96.73
2022-10-18T02:35:19.452Z,96.93
2022-10-18T02:40:19.414Z,96.83
2022-10-18T02:45:19.364Z,96.63
2022-10-18T02:50:19.329Z,96.83
2022-10-18T02:55:19.384Z,96.83
2022-10-18T03:00:19.238Z,96.73
2022-10-18T03:05:19.322Z,96.73
2022-10-18T03:10:20.029Z,96.73
2022-10-18T03:15:19.045Z,96.53
2022-10-18T03:20:18.974Z,96.63
2022-10-18T03:25:18.933Z,96.63
2022-10-18T03:30:18.866Z,96.73
2022-10-18T03:35:18.843Z,96.63
2022-10-18T03:40:18.869Z,96.63
2022-10-18T03:45:18.783Z,96.53
2022-10-18T03:50:18.720Z,96.63
2022-10-18T03:55:18.663Z,96.73
2022-10-18T04:00:18.569Z,96.63
2022-10-18T04:05:18.499Z,96.53
2022-10-18T04:10:18.441Z,96.53
2022-10-18T04:15:18.395Z,96.53
2022-10-18T04:20:18.347Z,96.63
2022-10-18T04:25:18.333Z,96.63
2022-10-18T04:30:18.335Z,96.53
2022-10-18T04:35:18.400Z,96.63
2022-10-18T04:40:18.334Z,96.63
2022-10-18T04:45:18.171Z,96.63
2022-10-18T04:50:18.012Z,96.73
2022-10-18T04:55:17.975Z,96.73
2022-10-18T05:00:17.915Z,96.63
2022-10-18T05:05:17.874Z,96.73
2022-10-18T05:10:17.816Z,96.73
2022-10-18T05:15:17.902Z,96.73
2022-10-18T05:20:17.692Z,96.69
2022-10-18T05:25:17.784Z,96.69
2022-10-18T05:30:17.581Z,96.78
2022-10-18T05:35:17.666Z,96.69
2022-10-18T05:40:22.082Z,96.69
2022-10-18T05:45:17.512Z,96.78
2022-10-18T05:50:17.498Z,97.03
2022-10-18T05:55:17.533Z,96.83
2022-10-18T06:00:17.274Z,96.73
2022-10-18T06:05:17.214Z,96.98
2022-10-18T06:10:17.155Z,96.89
2022-10-18T06:15:17.093Z,96.89
2022-10-18T06:20:17.115Z,96.78
2022-10-18T06:25:16.981Z,97.09
2022-10-18T06:30:16.945Z,96.98
2022-10-18T06:35:17.036Z,97.09
2022-10-18T06:40:16.974Z,97.09
2022-10-18T06:45:17.915Z,97.19
2022-10-18T06:50:16.863Z,97.09
2022-10-18T06:55:16.666Z,96.98
2022-10-18T07:00:16.735Z,97.09
2022-10-18T07:05:16.556Z,97.19
2022-10-18T07:10:16.490Z,97.29
2022-10-18T07:15:16.636Z,97.29
2022-10-18T07:20:16.614Z,97.25
2022-10-18T07:25:17.454Z,97.25
2022-10-18T07:30:16.355Z,97.14
2022-10-18T07:35:16.230Z,97.00
2022-10-18T07:40:16.172Z,96.89
2022-10-18T07:45:16.119Z,96.80
2022-10-18T07:50:16.082Z,96.80
2022-10-18T07:55:16.065Z,96.75
2022-10-18T08:00:16.100Z,96.65
2022-10-18T08:05:16.960Z,96.55
2022-10-18T08:10:15.801Z,96.60
2022-10-18T08:15:15.945Z,96.40
2022-10-18T08:20:29.882Z,96.04
2022-10-18T08:25:16.686Z,96.30
2022-10-18T08:30:15.614Z,95.94
2022-10-18T08:35:15.684Z,96.34
2022-10-18T08:40:15.741Z,96.30
2022-10-18T08:45:30.109Z,96.00
2022-10-18T08:50:16.551Z,95.79
2022-10-18T08:55:15.379Z,95.74
2022-10-18T09:00:15.329Z,95.90
2022-10-18T09:05:15.245Z,96.10
2022-10-18T09:10:15.255Z,95.95
2022-10-18T09:15:15.192Z,95.95
2022-10-18T09:20:15.193Z,95.55
2022-10-18T09:25:15.037Z,95.61
2022-10-18T09:30:15.124Z,95.56
2022-10-18T09:35:14.915Z,93.90
2022-10-18T09:40:18.050Z,93.54
2022-10-18T09:45:14.854Z,93.69
2022-10-18T09:50:14.753Z,93.69
2022-10-18T09:55:14.718Z,93.85
2022-10-18T10:00:14.817Z,93.24
2022-10-18T10:05:15.622Z,93.24
2022-10-18T10:10:14.655Z,92.90
2022-10-18T10:15:14.475Z,92.74
2022-10-18T10:20:14.557Z,91.78
2022-10-18T10:25:14.390Z,92.09
2022-10-18T10:30:14.420Z,91.69
2022-10-18T10:35:22.804Z,91.99
2022-10-18T10:40:19.850Z,91.78
2022-10-18T10:45:15.159Z,91.44
2022-10-18T10:50:14.262Z,89.93
2022-10-18T10:55:34.197Z,91.34
2022-10-18T11:00:14.988Z,90.53
2022-10-18T11:05:13.987Z,89.83
2022-10-18T11:10:14.035Z,88.92
2022-10-18T11:15:13.843Z,87.47
2022-10-18T11:20:13.769Z,87.19
2022-10-18T11:25:13.839Z,86.24
2022-10-18T11:30:14.714Z,84.63
2022-10-18T11:35:13.702Z,85.30
2022-10-18T11:40:13.646Z,85.53
2022-10-18T11:45:13.494Z,85.38
2022-10-18T11:50:13.461Z,86.14
2022-10-18T11:55:13.399Z,84.63
2022-10-18T12:00:13.462Z,84.63
2022-10-18T12:05:28.728Z,81.82
2022-10-18T12:10:16.465Z,83.23
2022-10-18T12:15:14.169Z,82.02
2022-10-18T12:20:13.145Z,82.76
2022-10-18T12:25:13.209Z,80.61
2022-10-18T12:30:13.032Z,81.90
2022-10-18T12:35:12.974Z,82.90
2022-10-18T12:40:15.666Z,83.95
2022-10-18T12:45:13.897Z,85.10
2022-10-18T12:50:12.858Z,85.30
2022-10-18T12:55:17.636Z,85.20
2022-10-18T13:00:13.843Z,83.39
2022-10-18T13:05:22.298Z,81.41
2022-10-18T13:10:13.695Z,81.87
2022-10-18T13:15:25.371Z,82.28
2022-10-18T13:20:25.564Z,83.22
2022-10-18T13:25:13.424Z,81.45
2022-10-18T13:30:12.537Z,79.29
2022-10-18T13:35:12.314Z,80.40
2022-10-18T13:40:12.466Z,81.01
2022-10-18T13:45:12.204Z,78.12
2022-10-18T13:50:12.327Z,75.20
2022-10-18T13:55:13.262Z,76.14
2022-10-18T14:00:12.050Z,76.95
2022-10-18T14:05:24.536Z,77.15
2022-10-18T14:10:13.092Z,77.49
2022-10-18T14:15:11.934Z,77.79
2022-10-18T14:20:11.833Z,79.64
2022-10-18T14:25:11.887Z,78.67
2022-10-18T14:30:11.787Z,81.10
2022-10-18T14:35:31.573Z,80.02
2022-10-18T14:40:12.620Z,79.92
2022-10-18T14:50:11.507Z,78.64
2022-10-18T14:55:12.525Z,79.15
2022-10-18T15:00:11.576Z,77.64
2022-10-18T15:05:11.490Z,76.82
2022-10-18T15:10:11.303Z,76.82
2022-10-18T15:15:11.384Z,77.23
2022-10-18T15:20:11.191Z,77.77
2022-10-18T15:25:11.099Z,78.68
2022-10-18T15:30:11.058Z,78.52
2022-10-18T15:35:11.019Z,77.30
2022-10-18T15:40:12.100Z,77.14
2022-10-18T15:45:10.956Z,79.87
2022-10-18T15:50:10.935Z,80.92
2022-10-18T15:55:10.930Z,80.72
2022-10-18T16:00:10.754Z,82.68
2022-10-18T16:05:10.690Z,82.68
2022-10-18T16:10:11.865Z,83.18
2022-10-18T16:15:10.739Z,83.94
2022-10-18T16:20:10.585Z,82.15
2022-10-18T16:25:10.631Z,83.57
2022-10-18T16:30:10.773Z,83.67
2022-10-18T16:35:10.395Z,85.74
2022-10-18T16:40:10.374Z,85.07
2022-10-18T16:45:10.257Z,86.53
2022-10-18T16:50:10.221Z,86.13
2022-10-18T16:55:10.137Z,87.18
2022-10-18T17:00:10.065Z,88.34
2022-10-18T17:05:10.058Z,87.73
2022-10-18T17:10:10.078Z,88.59
2022-10-18T17:15:09.914Z,88.12
2022-10-18T17:20:09.956Z,88.93
2022-10-18T17:25:09.911Z,89.64
2022-10-18T17:30:09.744Z,88.83
2022-10-18T17:35:09.885Z,90.50
2022-10-18T17:40:09.657Z,90.91
2022-10-18T17:45:09.766Z,90.30
2022-10-18T17:50:09.553Z,89.63
2022-10-18T17:55:09.480Z,90.14
2022-10-18T18:00:09.446Z,90.28
2022-10-18T18:05:09.370Z,90.48
2022-10-18T18:10:09.431Z,90.63
2022-10-18T18:15:09.359Z,90.83
2022-10-18T18:20:09.293Z,91.08
2022-10-18T18:25:09.163Z,91.28
2022-10-18T18:30:09.174Z,91.08
2022-10-18T18:35:09.037Z,91.83
2022-10-18T18:40:08.996Z,91.63
2022-10-18T18:45:08.929Z,91.57
2022-10-18T18:50:08.890Z,92.13
2022-10-18T18:55:08.841Z,92.64
2022-10-18T19:00:08.801Z,93.55
2022-10-18T19:05:08.794Z,93.29
2022-10-18T19:10:08.704Z,93.19
2022-10-18T19:15:08.632Z,93.74
2022-10-18T19:20:08.594Z,93.65
2022-10-18T19:25:08.517Z,94.15
2022-10-18T19:30:08.466Z,94.06
2022-10-18T19:35:08.406Z,93.79
2022-10-18T19:40:08.356Z,93.99
2022-10-18T19:45:08.317Z,94.04
2022-10-18T19:50:08.341Z,94.24
2022-10-18T19:55:08.294Z,94.75
2022-10-18T20:00:09.918Z,94.65
2022-10-18T20:05:08.070Z,94.70
2022-10-18T20:10:08.034Z,94.49
2022-10-18T20:15:07.982Z,94.33
2022-10-18T20:20:07.927Z,95.05
2022-10-18T20:25:07.872Z,94.95
2022-10-18T20:30:10.523Z,94.95
2022-10-18T20:35:07.751Z,94.89
2022-10-18T20:40:07.698Z,95.20
2022-10-18T20:45:07.734Z,95.09
2022-10-18T20:50:08.615Z,94.93
2022-10-18T20:55:07.663Z,95.24
2022-10-18T21:00:07.465Z,95.34
2022-10-18T21:05:07.403Z,95.24
2022-10-18T21:10:07.351Z,95.07
2022-10-18T21:15:07.305Z,94.98
2022-10-18T21:20:07.244Z,95.28
2022-10-18T21:25:07.325Z,95.02
2022-10-18T21:30:07.289Z,95.02
2022-10-18T21:35:07.202Z,94.96
2022-10-18T21:40:07.252Z,95.17
2022-10-18T21:45:07.069Z,95.37
2022-10-18T21:50:06.918Z,95.17
2022-10-18T21:55:06.858Z,95.10
2022-10-18T22:00:06.875Z,95.42
2022-10-18T22:05:08.436Z,95.52
2022-10-18T22:10:06.704Z,95.52
2022-10-18T22:15:06.763Z,95.42
2022-10-18T22:20:06.694Z,95.36
2022-10-18T22:25:06.623Z,95.36
2022-10-18T22:30:06.562Z,95.25
2022-10-18T22:35:06.446Z,95.30
2022-10-18T22:40:06.421Z,95.40
2022-10-18T22:45:06.350Z,95.50
2022-10-18T22:50:06.284Z,95.30
2022-10-18T22:55:06.231Z,95.50
2022-10-18T23:00:06.181Z,95.45
2022-10-18T23:05:06.109Z,95.65
2022-10-18T23:10:06.057Z,95.55
2022-10-18T23:15:06.019Z,95.80
2022-10-18T23:20:06.009Z,95.80
2022-10-18T23:25:05.925Z,95.59
2022-10-18T23:30:05.845Z,95.49
2022-10-18T23:35:05.906Z,95.49
2022-10-18T23:40:05.825Z,95.64
2022-10-18T23:45:05.775Z,95.33
2022-10-18T23:50:05.690Z,95.43
2022-10-18T23:55:05.593Z,95.68
